createdAt,value
2022-08-07T00:00:03.738Z,0.00
2022-08-07T00:01:44.588Z,0.00
2022-08-07T00:02:37.562Z,0.00
2022-08-07T00:03:03.462Z,0.00
2022-08-07T00:04:03.593Z,0.00
2022-08-07T00:05:04.172Z,0.00
2022-08-07T00:06:03.386Z,0.00
2022-08-07T00:07:05.167Z,0.00
2022-08-07T00:08:03.353Z,0.00
2022-08-07T00:09:16.772Z,0.00
2022-08-07T00:10:25.488Z,0.00
2022-08-07T00:11:03.282Z,0.00
2022-08-07T00:12:03.270Z,0.00
2022-08-07T00:13:17.598Z,0.00
2022-08-07T00:14:03.208Z,0.00
2022-08-07T00:15:03.184Z,0.00
2022-08-07T00:16:03.164Z,0.00
2022-08-07T00:17:03.234Z,0.00
2022-08-07T00:18:03.135Z,0.00
2022-08-07T00:19:05.613Z,0.00
2022-08-07T00:20:03.585Z,0.00
2022-08-07T00:21:03.358Z,0.00
2022-08-07T00:22:03.315Z,0.00
2022-08-07T00:23:03.004Z,0.00
2022-08-07T00:24:03.003Z,0.00
2022-08-07T00:25:02.954Z,0.00
2022-08-07T00:26:10.844Z,0.00
2022-08-07T00:27:07.580Z,0.00
2022-08-07T00:28:02.886Z,0.00
2022-08-07T00:29:02.864Z,0.00
2022-08-07T00:30:02.850Z,0.00
2022-08-07T00:31:05.705Z,0.00
2022-08-07T00:32:02.790Z,0.00
2022-08-07T00:33:02.832Z,0.00
2022-08-07T00:34:02.746Z,0.00
2022-08-07T00:35:02.726Z,0.00
2022-08-07T00:36:02.725Z,0.00
2022-08-07T00:37:02.697Z,0.00
2022-08-07T00:38:02.659Z,0.00
2022-08-07T00:39:02.709Z,0.00
2022-08-07T00:40:02.611Z,0.00
2022-08-07T00:41:02.593Z,0.00
2022-08-07T00:42:05.195Z,0.00
2022-08-07T00:43:02.549Z,0.00
2022-08-07T00:44:03.066Z,0.00
2022-08-07T00:45:02.494Z,0.00
2022-08-07T00:46:02.488Z,0.00
2022-08-07T00:47:02.458Z,0.00
2022-08-07T00:48:07.917Z,0.00
2022-08-07T00:49:02.406Z,0.00
2022-08-07T00:50:19.249Z,0.00
2022-08-07T00:51:02.373Z,0.00
2022-08-07T00:52:02.335Z,0.00
2022-08-07T00:53:02.314Z,0.00
2022-08-07T00:54:02.290Z,0.00
2022-08-07T00:55:04.946Z,0.00
2022-08-07T00:56:04.036Z,0.00
2022-08-07T00:57:02.219Z,0.00
2022-08-07T00:58:02.205Z,0.00
2022-08-07T00:59:02.192Z,0.00
2022-08-07T01:00:02.170Z,0.00
2022-08-07T01:01:02.203Z,0.00
2022-08-07T01:02:02.180Z,0.00
2022-08-07T01:03:02.124Z,0.00
2022-08-07T01:04:02.074Z,0.00
2022-08-07T01:05:02.040Z,0.00
2022-08-07T01:06:02.011Z,0.00
2022-08-07T01:07:01.983Z,0.00
2022-08-07T01:08:01.970Z,0.00
2022-08-07T01:09:02.940Z,0.00
2022-08-07T01:10:06.873Z,0.00
2022-08-07T01:11:10.731Z,0.00
2022-08-07T01:12:23.797Z,0.00
2022-08-07T01:13:01.853Z,0.00
2022-08-07T01:14:01.833Z,0.00
2022-08-07T01:15:04.034Z,0.00
2022-08-07T01:16:05.889Z,0.00
2022-08-07T01:17:04.057Z,0.00
2022-08-07T01:18:01.746Z,0.00
2022-08-07T01:19:01.713Z,0.00
2022-08-07T01:20:01.823Z,0.00
2022-08-07T01:21:01.672Z,0.00
2022-08-07T01:22:03.312Z,0.00
2022-08-07T01:23:12.969Z,0.00
2022-08-07T01:24:01.609Z,0.00
2022-08-07T01:25:02.447Z,0.00
2022-08-07T01:26:01.560Z,0.00
2022-08-07T01:27:01.544Z,0.00
2022-08-07T01:28:01.507Z,0.00
2022-08-07T01:29:01.487Z,0.00
2022-08-07T01:30:01.493Z,0.00
2022-08-07T01:31:01.434Z,0.00
2022-08-07T01:32:01.411Z,0.00
2022-08-07T01:33:02.297Z,0.00
2022-08-07T01:34:01.369Z,0.00
2022-08-07T01:35:01.343Z,0.00
2022-08-07T01:36:06.440Z,0.00
2022-08-07T01:37:01.299Z,0.00
2022-08-07T01:38:01.285Z,0.00
2022-08-07T01:39:01.320Z,0.00
2022-08-07T01:40:01.267Z,0.00
2022-08-07T01:41:01.209Z,0.00
2022-08-07T01:42:38.883Z,0.00
2022-08-07T01:43:01.156Z,0.00
2022-08-07T01:44:01.630Z,0.00
2022-08-07T01:45:01.121Z,0.00
2022-08-07T01:46:01.085Z,0.00
2022-08-07T01:48:16.405Z,0.00
2022-08-07T01:48:18.534Z,0.00
2022-08-07T01:49:02.228Z,0.00
2022-08-07T01:50:01.005Z,0.00
2022-08-07T01:51:24.691Z,0.00
2022-08-07T01:52:04.482Z,0.00
2022-08-07T01:53:00.945Z,0.00
2022-08-07T01:54:09.280Z,0.00
2022-08-07T01:55:00.885Z,0.00
2022-08-07T01:56:00.865Z,0.00
2022-08-07T01:57:00.839Z,0.00
2022-08-07T01:58:05.654Z,0.00
2022-08-07T01:59:00.785Z,0.00
2022-08-07T02:00:00.765Z,0.00
2022-08-07T02:01:25.363Z,0.00
2022-08-07T02:02:04.490Z,0.00
2022-08-07T02:03:19.135Z,0.00
2022-08-07T02:04:00.750Z,0.00
2022-08-07T02:05:00.657Z,0.00
2022-08-07T02:06:01.049Z,0.00
2022-08-07T02:07:00.600Z,0.00
2022-08-07T02:08:00.573Z,0.00
2022-08-07T02:09:00.568Z,0.00
2022-08-07T02:10:00.632Z,0.00
2022-08-07T02:11:00.522Z,0.00
2022-08-07T02:12:04.981Z,0.00
2022-08-07T02:13:00.487Z,0.00
2022-08-07T02:14:02.556Z,0.00
2022-08-07T02:15:00.860Z,0.00
2022-08-07T02:16:00.400Z,0.00
2022-08-07T02:17:00.386Z,0.00
2022-08-07T02:18:00.367Z,0.00
2022-08-07T02:19:00.341Z,0.00
2022-08-07T02:20:04.348Z,0.00
2022-08-07T02:21:00.280Z,0.00
2022-08-07T02:22:00.261Z,0.00
2022-08-07T02:23:00.232Z,0.00
2022-08-07T02:24:00.212Z,0.00
2022-08-07T02:25:00.191Z,0.00
2022-08-07T02:26:26.549Z,0.00
2022-08-07T02:27:01.398Z,0.00
2022-08-07T02:28:00.111Z,0.00
2022-08-07T02:29:00.175Z,0.00
2022-08-07T02:30:00.077Z,0.00
2022-08-07T02:31:00.050Z,0.00
2022-08-07T02:32:00.074Z,0.00
2022-08-07T02:33:07.496Z,0.00
2022-08-07T02:34:10.902Z,0.00
2022-08-07T02:35:00.839Z,0.00
2022-08-07T02:36:30.917Z,0.00
2022-08-07T02:36:59.904Z,0.00
2022-08-07T02:37:59.914Z,0.00
2022-08-07T02:38:59.957Z,0.00
2022-08-07T02:40:02.075Z,0.00
2022-08-07T02:40:59.868Z,0.00
2022-08-07T02:41:59.798Z,0.00
2022-08-07T02:42:59.790Z,0.00
2022-08-07T02:43:59.776Z,0.00
2022-08-07T02:44:59.726Z,0.00
2022-08-07T02:46:02.554Z,0.00
2022-08-07T02:46:59.692Z,0.00
2022-08-07T02:48:01.617Z,0.00
2022-08-07T02:48:59.641Z,0.00
2022-08-07T02:50:00.218Z,0.00
2022-08-07T02:50:59.582Z,0.00
2022-08-07T02:51:59.559Z,0.00
2022-08-07T02:53:03.324Z,0.00
2022-08-07T02:53:59.514Z,0.00
2022-08-07T02:54:59.497Z,0.00
2022-08-07T02:56:03.153Z,0.00
2022-08-07T02:56:59.463Z,0.00
2022-08-07T02:57:59.873Z,0.00
2022-08-07T02:58:59.400Z,0.00
2022-08-07T03:00:01.203Z,0.00
2022-08-07T03:00:59.401Z,0.00
2022-08-07T03:02:02.229Z,0.00
2022-08-07T03:02:59.341Z,0.00
2022-08-07T03:03:59.280Z,0.00
2022-08-07T03:04:59.282Z,0.00
2022-08-07T03:05:59.243Z,0.00
2022-08-07T03:06:59.228Z,0.00
2022-08-07T03:08:04.892Z,0.00
2022-08-07T03:08:59.171Z,0.00
2022-08-07T03:09:59.142Z,0.00
2022-08-07T03:10:59.119Z,0.00
2022-08-07T03:12:02.785Z,0.00
2022-08-07T03:12:59.093Z,0.00
2022-08-07T03:14:01.801Z,0.00
2022-08-07T03:14:59.033Z,0.00
2022-08-07T03:15:59.009Z,0.00
2022-08-07T03:16:58.971Z,0.00
2022-08-07T03:17:58.945Z,0.00
2022-08-07T03:18:58.926Z,0.00
2022-08-07T03:19:58.908Z,0.00
2022-08-07T03:20:58.882Z,0.00
2022-08-07T03:21:58.865Z,0.00
2022-08-07T03:22:58.836Z,0.00
2022-08-07T03:24:18.089Z,0.00
2022-08-07T03:24:58.787Z,0.00
2022-08-07T03:25:59.966Z,0.00
2022-08-07T03:26:59.616Z,0.00
2022-08-07T03:28:08.841Z,0.00
2022-08-07T03:28:58.694Z,0.00
2022-08-07T03:29:58.664Z,0.00
2022-08-07T03:30:58.639Z,0.00
2022-08-07T03:31:58.749Z,0.00
2022-08-07T03:32:59.379Z,0.00
2022-08-07T03:33:58.593Z,0.00
2022-08-07T03:35:01.018Z,0.00
2022-08-07T03:35:58.523Z,0.00
2022-08-07T03:36:58.503Z,0.00
2022-08-07T03:37:58.473Z,0.00
2022-08-07T03:38:58.506Z,0.00
2022-08-07T03:40:13.203Z,0.00
2022-08-07T03:40:58.414Z,0.00
2022-08-07T03:41:58.379Z,0.00
2022-08-07T03:42:58.362Z,0.00
2022-08-07T03:43:58.381Z,0.00
2022-08-07T03:44:58.320Z,0.00
2022-08-07T03:45:58.287Z,0.00
2022-08-07T03:47:13.003Z,0.00
2022-08-07T03:47:58.241Z,0.00
2022-08-07T03:49:02.432Z,0.00
2022-08-07T03:49:58.200Z,0.00
2022-08-07T03:50:58.171Z,0.00
2022-08-07T03:52:01.420Z,0.00
2022-08-07T03:52:58.117Z,0.00
2022-08-07T03:54:33.889Z,0.00
2022-08-07T03:55:06.311Z,0.00
2022-08-07T03:56:04.475Z,0.00
2022-08-07T03:57:03.622Z,5.63
2022-08-07T03:58:33.205Z,5.63
2022-08-07T03:59:09.478Z,5.63
2022-08-07T04:00:01.735Z,5.63
2022-08-07T04:01:00.251Z,5.63
2022-08-07T04:01:57.976Z,5.63
2022-08-07T04:02:57.887Z,5.63
2022-08-07T04:03:57.854Z,5.63
2022-08-07T04:04:57.860Z,11.25
2022-08-07T04:05:58.582Z,11.25
2022-08-07T04:06:57.797Z,11.25
2022-08-07T04:07:57.787Z,11.25
2022-08-07T04:09:03.118Z,11.25
2022-08-07T04:09:57.723Z,11.25
2022-08-07T04:12:23.653Z,16.88
2022-08-07T04:12:24.710Z,16.88
2022-08-07T04:12:57.661Z,16.88
2022-08-07T04:14:10.430Z,16.88
2022-08-07T04:14:57.603Z,16.88
2022-08-07T04:15:57.601Z,22.50
2022-08-07T04:16:58.248Z,22.50
2022-08-07T04:18:56.347Z,22.50
2022-08-07T04:19:03.921Z,22.50
2022-08-07T04:19:57.485Z,22.50
2022-08-07T04:20:57.465Z,28.13
2022-08-07T04:21:59.277Z,28.13
2022-08-07T04:23:01.362Z,28.13
2022-08-07T04:24:07.002Z,28.13
2022-08-07T04:24:57.968Z,28.13
2022-08-07T04:25:57.348Z,33.75
2022-08-07T04:26:57.325Z,33.75
2022-08-07T04:28:00.384Z,33.75
2022-08-07T04:28:58.519Z,33.75
2022-08-07T04:29:57.255Z,33.75
2022-08-07T04:30:58.732Z,39.38
2022-08-07T04:32:09.490Z,39.38
2022-08-07T04:32:58.011Z,39.38
2022-08-07T04:33:57.194Z,39.38
2022-08-07T04:34:57.137Z,39.38
2022-08-07T04:35:57.109Z,45.00
2022-08-07T04:36:57.097Z,45.00
2022-08-07T04:38:03.747Z,45.00
2022-08-07T04:38:57.052Z,45.00
2022-08-07T04:39:57.086Z,45.00
2022-08-07T04:40:57.045Z,50.63
2022-08-07T04:41:56.966Z,50.63
2022-08-07T04:43:01.705Z,50.63
2022-08-07T04:44:13.208Z,50.63
2022-08-07T04:45:03.273Z,50.63
2022-08-07T04:46:00.987Z,56.25
2022-08-07T04:47:03.974Z,56.25
2022-08-07T04:48:01.925Z,56.25
2022-08-07T04:48:56.800Z,56.25
2022-08-07T04:50:02.040Z,56.25
2022-08-07T04:50:56.759Z,56.25
2022-08-07T04:51:56.841Z,61.88
2022-08-07T04:52:56.704Z,61.88
2022-08-07T04:54:06.445Z,61.88
2022-08-07T04:54:58.107Z,61.88
2022-08-07T04:58:11.623Z,67.50
2022-08-07T04:58:12.435Z,67.50
2022-08-07T04:58:25.881Z,67.50
2022-08-07T05:00:11.510Z,73.13
2022-08-07T05:00:56.557Z,73.13
2022-08-07T05:01:56.510Z,73.13
2022-08-07T05:02:56.909Z,78.75
2022-08-07T05:04:07.401Z,78.75
2022-08-07T05:04:56.449Z,78.75
2022-08-07T05:05:57.369Z,78.75
2022-08-07T05:06:56.398Z,84.38
2022-08-07T05:07:56.353Z,84.38
2022-08-07T05:09:00.878Z,84.38
2022-08-07T05:09:56.312Z,84.38
2022-08-07T05:11:02.333Z,90.00
2022-08-07T05:11:58.079Z,90.00
2022-08-07T05:13:01.451Z,90.00
2022-08-07T05:14:53.975Z,90.00
2022-08-07T05:15:03.222Z,90.00
2022-08-07T05:15:56.187Z,90.00
2022-08-07T05:16:56.174Z,95.63
2022-08-07T05:17:56.485Z,95.63
2022-08-07T05:18:56.099Z,95.63
2022-08-07T05:19:56.076Z,95.63
2022-08-07T05:20:56.049Z,95.63
2022-08-07T05:22:00.093Z,95.63
2022-08-07T05:22:56.032Z,101.25
2022-08-07T05:23:55.980Z,101.25
2022-08-07T05:24:55.959Z,101.25
2022-08-07T05:26:11.839Z,101.25
2022-08-07T05:26:55.957Z,101.25
2022-08-07T05:28:02.615Z,101.25
2022-08-07T05:28:55.864Z,101.25
2022-08-07T05:29:55.857Z,101.25
2022-08-07T05:30:55.824Z,101.25
2022-08-07T05:31:55.809Z,101.25
2022-08-07T05:32:55.776Z,101.25
2022-08-07T05:34:04.585Z,101.25
2022-08-07T05:34:55.749Z,101.25
2022-08-07T05:35:55.722Z,101.25
2022-08-07T05:36:55.678Z,106.88
2022-08-07T05:38:08.290Z,106.88
2022-08-07T05:39:01.382Z,106.88
2022-08-07T05:40:14.144Z,106.88
2022-08-07T05:40:55.652Z,106.88
2022-08-07T05:42:01.690Z,106.88
2022-08-07T05:42:56.521Z,106.88
2022-08-07T05:44:08.193Z,106.88
2022-08-07T05:45:04.338Z,106.88
2022-08-07T05:45:56.474Z,112.50
2022-08-07T05:46:55.453Z,112.50
2022-08-07T05:48:01.843Z,112.50
2022-08-07T05:48:58.413Z,112.50
2022-08-07T05:49:55.401Z,118.13
2022-08-07T05:50:55.397Z,118.13
2022-08-07T05:51:55.343Z,118.13
2022-08-07T05:52:55.320Z,118.13
2022-08-07T05:54:11.955Z,118.13
2022-08-07T05:54:58.630Z,118.13
2022-08-07T05:56:02.030Z,118.13
2022-08-07T05:56:55.230Z,118.13
2022-08-07T05:57:55.224Z,118.13
2022-08-07T05:58:55.193Z,118.13
2022-08-07T05:59:57.537Z,118.13
2022-08-07T06:00:55.145Z,118.13
2022-08-07T06:01:55.140Z,118.13
2022-08-07T06:02:55.104Z,129.38
2022-08-07T06:03:58.979Z,123.75
2022-08-07T06:04:55.054Z,123.75
2022-08-07T06:05:56.547Z,123.75
2022-08-07T06:06:56.793Z,123.75
2022-08-07T06:08:13.499Z,123.75
2022-08-07T06:08:55.019Z,123.75
2022-08-07T06:10:05.277Z,123.75
2022-08-07T06:10:55.113Z,123.75
2022-08-07T06:11:54.938Z,123.75
2022-08-07T06:12:54.887Z,123.75
2022-08-07T06:14:11.952Z,123.75
2022-08-07T06:14:54.839Z,123.75
2022-08-07T06:15:54.814Z,129.38
2022-08-07T06:16:55.803Z,129.38
2022-08-07T06:17:55.225Z,129.38
2022-08-07T06:18:55.823Z,129.38
2022-08-07T06:20:03.552Z,135.00
2022-08-07T06:22:15.415Z,129.38
2022-08-07T06:22:16.687Z,129.38
2022-08-07T06:23:02.203Z,129.38
2022-08-07T06:24:37.969Z,129.38
2022-08-07T06:24:57.893Z,129.38
2022-08-07T06:25:57.193Z,129.38
2022-08-07T06:26:54.580Z,129.38
2022-08-07T06:28:01.004Z,129.38
2022-08-07T06:28:54.537Z,135.00
2022-08-07T06:29:54.517Z,135.00
2022-08-07T06:30:54.497Z,135.00
2022-08-07T06:31:54.475Z,135.00
2022-08-07T06:32:54.452Z,135.00
2022-08-07T06:33:54.437Z,135.00
2022-08-07T06:34:54.418Z,135.00
2022-08-07T06:36:12.104Z,135.00
2022-08-07T06:36:54.386Z,135.00
2022-08-07T06:37:54.399Z,135.00
2022-08-07T06:40:13.585Z,135.00
2022-08-07T06:40:15.953Z,140.63
2022-08-07T06:40:54.339Z,140.63
2022-08-07T06:42:01.636Z,140.63
2022-08-07T06:42:54.401Z,140.63
2022-08-07T06:43:59.229Z,140.63
2022-08-07T06:44:54.220Z,140.63
2022-08-07T06:46:00.147Z,140.63
2022-08-07T06:47:12.028Z,140.63
2022-08-07T06:47:57.206Z,140.63
2022-08-07T06:48:54.131Z,140.63
2022-08-07T06:49:58.674Z,140.63
2022-08-07T06:50:54.246Z,146.25
2022-08-07T06:51:59.219Z,146.25
2022-08-07T06:52:54.062Z,146.25
2022-08-07T06:55:31.287Z,146.25
2022-08-07T06:55:31.676Z,146.25
2022-08-07T06:56:01.496Z,146.25
2022-08-07T06:56:53.974Z,146.25
2022-08-07T06:57:57.336Z,146.25
2022-08-07T07:00:12.237Z,146.25
2022-08-07T07:00:14.842Z,151.88
2022-08-07T07:00:53.910Z,151.88
2022-08-07T07:01:53.946Z,163.13
2022-08-07T07:02:58.193Z,163.13
2022-08-07T07:04:04.253Z,174.38
2022-08-07T07:04:55.133Z,191.25
2022-08-07T07:06:03.486Z,208.13
2022-08-07T07:07:00.385Z,208.13
2022-08-07T07:07:59.947Z,208.13
2022-08-07T07:08:53.773Z,219.38
2022-08-07T07:09:53.752Z,225.00
2022-08-07T07:10:56.597Z,225.00
2022-08-07T07:12:08.894Z,219.38
2022-08-07T07:12:53.824Z,213.75
2022-08-07T07:13:58.312Z,213.75
2022-08-07T07:14:53.657Z,213.75
2022-08-07T07:15:53.623Z,208.13
2022-08-07T07:16:53.784Z,196.88
2022-08-07T07:17:53.593Z,208.13
2022-08-07T07:18:53.577Z,213.75
2022-08-07T07:19:56.553Z,225.00
2022-08-07T07:20:53.550Z,219.38
2022-08-07T07:22:05.111Z,219.38
2022-08-07T07:24:08.029Z,225.00
2022-08-07T07:24:09.419Z,219.38
2022-08-07T07:24:57.025Z,219.38
2022-08-07T07:26:35.840Z,219.38
2022-08-07T07:26:53.454Z,219.38
2022-08-07T07:27:55.829Z,225.00
2022-08-07T07:29:39.078Z,219.38
2022-08-07T07:30:08.693Z,219.38
2022-08-07T07:30:53.377Z,219.38
2022-08-07T07:31:53.404Z,219.38
2022-08-07T07:32:53.346Z,213.75
2022-08-07T07:33:56.834Z,219.38
2022-08-07T07:34:53.326Z,213.75
2022-08-07T07:36:04.169Z,213.75
2022-08-07T07:36:54.167Z,213.75
2022-08-07T07:38:02.802Z,213.75
2022-08-07T07:38:53.275Z,213.75
2022-08-07T07:39:55.344Z,213.75
2022-08-07T07:40:53.251Z,213.75
2022-08-07T07:42:13.553Z,213.75
2022-08-07T07:42:54.330Z,213.75
2022-08-07T07:44:16.788Z,213.75
2022-08-07T07:44:53.174Z,213.75
2022-08-07T07:46:37.635Z,213.75
2022-08-07T07:46:57.161Z,213.75
2022-08-07T07:47:53.465Z,213.75
2022-08-07T07:49:00.248Z,213.75
2022-08-07T07:50:36.037Z,213.75
2022-08-07T07:50:53.100Z,213.75
2022-08-07T07:51:57.857Z,213.75
2022-08-07T07:52:53.084Z,213.75
2022-08-07T07:53:53.818Z,213.75
2022-08-07T07:54:53.062Z,219.38
2022-08-07T07:55:54.744Z,219.38
2022-08-07T07:56:53.031Z,219.38
2022-08-07T07:57:58.146Z,219.38
2022-08-07T07:58:53.017Z,219.38
2022-08-07T07:59:53.923Z,219.38
2022-08-07T08:00:54.035Z,219.38
2022-08-07T08:02:05.174Z,219.38
2022-08-07T08:03:05.341Z,219.38
2022-08-07T08:04:10.358Z,219.38
2022-08-07T08:04:52.998Z,219.38
2022-08-07T08:05:54.856Z,219.38
2022-08-07T08:06:53.360Z,219.38
2022-08-07T08:08:00.979Z,219.38
2022-08-07T08:08:52.865Z,219.38
2022-08-07T08:10:05.443Z,219.38
2022-08-07T08:10:52.858Z,219.38
2022-08-07T08:12:02.837Z,219.38
2022-08-07T08:12:59.801Z,219.38
2022-08-07T08:13:55.668Z,219.38
2022-08-07T08:14:52.794Z,219.38
2022-08-07T08:15:59.027Z,225.00
2022-08-07T08:16:52.787Z,219.38
2022-08-07T08:17:57.333Z,219.38
2022-08-07T08:18:52.758Z,225.00
2022-08-07T08:20:17.739Z,225.00
2022-08-07T08:20:54.028Z,225.00
2022-08-07T08:21:55.973Z,225.00
2022-08-07T08:22:55.884Z,219.38
2022-08-07T08:23:52.731Z,219.38
2022-08-07T08:25:04.752Z,219.38
2022-08-07T08:25:54.557Z,219.38
2022-08-07T08:26:52.681Z,219.38
2022-08-07T08:27:55.919Z,219.38
2022-08-07T08:28:52.633Z,219.38
2022-08-07T08:29:55.848Z,219.38
2022-08-07T08:30:55.549Z,219.38
2022-08-07T08:32:17.366Z,219.38
2022-08-07T08:32:52.600Z,219.38
2022-08-07T08:33:55.349Z,219.38
2022-08-07T08:35:52.585Z,219.38
2022-08-07T08:36:56.269Z,219.38
2022-08-07T08:37:59.871Z,219.38
2022-08-07T08:38:52.534Z,219.38
2022-08-07T08:39:54.835Z,219.38
2022-08-07T08:40:52.521Z,219.38
2022-08-07T08:42:13.504Z,219.38
2022-08-07T08:42:52.499Z,225.00
2022-08-07T08:43:58.733Z,225.00
2022-08-07T08:44:52.475Z,225.00
2022-08-07T08:45:58.920Z,225.00
2022-08-07T08:46:52.443Z,225.00
2022-08-07T08:48:13.439Z,225.00
2022-08-07T08:48:52.429Z,225.00
2022-08-07T08:50:02.561Z,230.63
2022-08-07T08:50:52.428Z,230.63
2022-08-07T08:52:12.772Z,230.63
2022-08-07T08:52:54.215Z,230.63
2022-08-07T08:54:13.379Z,230.63
2022-08-07T08:54:52.380Z,230.63
2022-08-07T08:55:54.304Z,230.63
2022-08-07T08:56:52.338Z,230.63
2022-08-07T08:57:52.337Z,230.63
2022-08-07T08:58:54.453Z,230.63
2022-08-07T09:00:13.321Z,230.63
2022-08-07T09:00:52.733Z,230.63
2022-08-07T09:01:52.323Z,230.63
2022-08-07T09:02:52.843Z,230.63
2022-08-07T09:03:53.064Z,236.25
2022-08-07T09:04:52.255Z,236.25
2022-08-07T09:06:13.255Z,230.63
2022-08-07T09:06:52.287Z,236.25
2022-08-07T09:07:57.774Z,236.25
2022-08-07T09:08:52.249Z,236.25
2022-08-07T09:09:56.706Z,236.25
2022-08-07T09:10:52.208Z,236.25
2022-08-07T09:12:30.509Z,241.88
2022-08-07T09:12:53.456Z,241.88
2022-08-07T09:13:52.190Z,241.88
2022-08-07T09:14:58.831Z,241.88
2022-08-07T09:16:20.706Z,247.50
2022-08-07T09:16:52.145Z,247.50
2022-08-07T09:18:14.350Z,247.50
2022-08-07T09:18:53.338Z,247.50
2022-08-07T09:19:55.154Z,253.13
2022-08-07T09:20:58.643Z,253.13
2022-08-07T09:22:22.753Z,253.13
2022-08-07T09:24:31.903Z,258.75
2022-08-07T09:24:32.666Z,258.75
2022-08-07T09:24:58.495Z,258.75
2022-08-07T09:25:54.330Z,264.38
2022-08-07T09:26:52.032Z,264.38
2022-08-07T09:28:00.185Z,264.38
2022-08-07T09:30:01.672Z,270.00
2022-08-07T09:30:13.901Z,270.00
2022-08-07T09:30:54.902Z,270.00
2022-08-07T09:31:51.989Z,275.63
2022-08-07T09:32:51.971Z,275.63
2022-08-07T09:33:57.103Z,275.63
2022-08-07T09:34:53.785Z,281.25
2022-08-07T09:36:12.962Z,281.25
2022-08-07T09:36:51.936Z,286.88
2022-08-07T09:37:53.597Z,286.88
2022-08-07T09:38:54.012Z,286.88
2022-08-07T09:39:54.730Z,292.50
2022-08-07T09:40:51.908Z,292.50
2022-08-07T09:42:17.306Z,298.13
2022-08-07T09:42:51.881Z,303.75
2022-08-07T09:44:06.779Z,309.38
2022-08-07T09:46:28.726Z,309.38
2022-08-07T09:47:25.996Z,315.00
2022-08-07T09:47:52.544Z,309.38
2022-08-07T09:48:14.704Z,315.00
2022-08-07T09:50:00.493Z,320.63
2022-08-07T09:50:02.104Z,315.00
2022-08-07T09:50:52.304Z,320.63
2022-08-07T09:52:10.225Z,320.63
2022-08-07T09:52:52.279Z,320.63
2022-08-07T09:54:16.467Z,326.25
2022-08-07T09:54:51.793Z,331.88
2022-08-07T09:56:03.069Z,331.88
2022-08-07T09:56:51.742Z,343.13
2022-08-07T09:57:51.744Z,343.13
2022-08-07T09:58:51.727Z,348.75
2022-08-07T10:00:14.696Z,354.38
2022-08-07T10:00:51.710Z,354.38
2022-08-07T10:01:54.375Z,360.00
2022-08-07T10:02:53.677Z,365.63
2022-08-07T10:04:05.964Z,371.25
2022-08-07T10:04:53.484Z,376.88
2022-08-07T10:06:12.747Z,382.50
2022-08-07T10:06:53.970Z,388.13
2022-08-07T10:07:52.981Z,393.75
2022-08-07T10:08:51.638Z,416.25
2022-08-07T10:10:00.102Z,410.63
2022-08-07T10:12:00.167Z,416.25
2022-08-07T10:12:19.608Z,427.50
2022-08-07T10:12:53.299Z,433.13
2022-08-07T10:13:55.180Z,444.38
2022-08-07T10:14:55.202Z,455.63
2022-08-07T10:15:51.569Z,472.50
2022-08-07T10:16:51.562Z,489.38
2022-08-07T10:18:12.561Z,506.25
2022-08-07T10:18:51.547Z,528.75
2022-08-07T10:19:51.535Z,540.00
2022-08-07T10:20:51.527Z,562.50
2022-08-07T10:22:14.982Z,579.38
2022-08-07T10:22:51.517Z,601.88
2022-08-07T10:24:15.042Z,630.00
2022-08-07T10:24:51.498Z,652.50
2022-08-07T10:25:51.962Z,686.25
2022-08-07T10:26:51.530Z,725.63
2022-08-07T10:27:51.663Z,765.00
2022-08-07T10:28:51.466Z,815.63
2022-08-07T10:30:13.046Z,866.25
2022-08-07T10:30:51.450Z,933.75
2022-08-07T10:31:51.444Z,1001.25
2022-08-07T10:32:53.650Z,1080.00
2022-08-07T10:34:06.483Z,1164.38
2022-08-07T10:34:51.419Z,1254.38
2022-08-07T10:36:12.703Z,1344.38
2022-08-07T10:36:51.405Z,1440.00
2022-08-07T10:38:09.567Z,1524.38
2022-08-07T10:38:51.622Z,1625.63
2022-08-07T10:40:03.399Z,1710.00
2022-08-07T10:40:51.377Z,1794.38
2022-08-07T10:42:20.937Z,1873.13
2022-08-07T10:42:51.357Z,1935.00
2022-08-07T10:43:51.356Z,2002.50
2022-08-07T10:44:51.348Z,2036.25
2022-08-07T10:45:58.310Z,2103.75
2022-08-07T10:46:51.338Z,2131.88
2022-08-07T10:48:12.339Z,2165.63
2022-08-07T10:48:51.320Z,2199.38
2022-08-07T10:49:51.895Z,2221.88
2022-08-07T10:50:51.312Z,2250.00
2022-08-07T10:52:02.266Z,2255.63
2022-08-07T10:52:51.802Z,2261.25
2022-08-07T10:54:12.300Z,2272.50
2022-08-07T10:55:00.811Z,2289.38
2022-08-07T10:55:53.519Z,2306.25
2022-08-07T10:56:51.268Z,2328.75
2022-08-07T10:57:51.542Z,2328.75
2022-08-07T10:58:59.711Z,2334.38
2022-08-07T11:00:36.871Z,2334.38
2022-08-07T11:00:56.004Z,2345.63
2022-08-07T11:02:04.877Z,2362.50
2022-08-07T11:02:53.609Z,2368.13
2022-08-07T11:04:01.263Z,2379.38
2022-08-07T11:04:51.333Z,2390.63
2022-08-07T11:06:18.206Z,2396.25
2022-08-07T11:06:51.213Z,2413.13
2022-08-07T11:07:58.762Z,2424.38
2022-08-07T11:08:51.201Z,2418.75
2022-08-07T11:10:08.772Z,2407.50
2022-08-07T11:10:57.936Z,2441.25
2022-08-07T11:12:12.190Z,2469.38
2022-08-07T11:13:01.578Z,2480.63
2022-08-07T11:14:45.854Z,2503.13
2022-08-07T11:14:59.814Z,2520.00
2022-08-07T11:15:54.404Z,2559.38
2022-08-07T11:16:54.653Z,2570.63
2022-08-07T11:18:12.563Z,2610.00
2022-08-07T11:18:51.825Z,2626.88
2022-08-07T11:19:51.145Z,2649.38
2022-08-07T11:20:51.142Z,2683.13
2022-08-07T11:21:51.142Z,2722.50
2022-08-07T11:22:51.134Z,2745.00
2022-08-07T11:24:12.145Z,2767.50
2022-08-07T11:24:51.802Z,2818.13
2022-08-07T11:25:51.191Z,2863.13
2022-08-07T11:26:51.113Z,2880.00
2022-08-07T11:28:01.317Z,2919.38
2022-08-07T11:28:55.362Z,2953.13
2022-08-07T11:30:19.037Z,2998.13
2022-08-07T11:30:51.106Z,3015.00
2022-08-07T11:31:51.817Z,3054.38
2022-08-07T11:32:52.820Z,3099.38
2022-08-07T11:33:59.371Z,3127.50
2022-08-07T11:34:51.096Z,3155.63
2022-08-07T11:36:12.095Z,3183.75
2022-08-07T11:36:51.079Z,3223.13
2022-08-07T11:37:57.897Z,3256.88
2022-08-07T11:38:51.125Z,3290.63
2022-08-07T11:40:01.699Z,3352.50
2022-08-07T11:40:51.180Z,3386.25
2022-08-07T11:42:18.777Z,3408.75
2022-08-07T11:42:51.099Z,3414.38
2022-08-07T11:44:10.561Z,3431.25
2022-08-07T11:44:51.999Z,3436.88
2022-08-07T11:45:53.559Z,3459.38
2022-08-07T11:46:51.055Z,3470.63
2022-08-07T11:48:17.940Z,3504.38
2022-08-07T11:49:27.558Z,3526.88
2022-08-07T11:50:31.611Z,3543.75
2022-08-07T11:50:57.394Z,3577.50
2022-08-07T11:51:51.055Z,3622.50
2022-08-07T11:52:51.266Z,3645.00
2022-08-07T11:54:12.053Z,3645.00
2022-08-07T11:54:55.053Z,3656.25
2022-08-07T11:56:25.618Z,3661.88
2022-08-07T11:56:53.123Z,3701.25
2022-08-07T11:57:59.386Z,3712.50
2022-08-07T11:58:51.034Z,3723.75
2022-08-07T12:00:19.848Z,3735.00
2022-08-07T12:01:01.648Z,3735.00
2022-08-07T12:01:59.135Z,3740.63
2022-08-07T12:02:52.509Z,3768.75
2022-08-07T12:03:51.164Z,3791.25
2022-08-07T12:04:51.033Z,3813.75
2022-08-07T12:06:38.918Z,3813.75
2022-08-07T12:06:56.230Z,3836.25
2022-08-07T12:07:59.548Z,3825.00
2022-08-07T12:08:52.396Z,3847.50
2022-08-07T12:09:51.029Z,3870.00
2022-08-07T12:11:08.182Z,3875.63
2022-08-07T12:12:12.349Z,3920.63
2022-08-07T12:12:51.011Z,3920.63
2022-08-07T12:13:51.013Z,3909.38
2022-08-07T12:14:55.620Z,3898.13
2022-08-07T12:16:07.010Z,3903.75
2022-08-07T12:16:51.014Z,3926.25
2022-08-07T12:18:12.047Z,3943.13
2022-08-07T12:18:51.018Z,3954.38
2022-08-07T12:20:02.602Z,3943.13
2022-08-07T12:20:51.004Z,3931.88
2022-08-07T12:22:35.877Z,3931.88
2022-08-07T12:22:58.689Z,3931.88
2022-08-07T12:24:36.737Z,3915.00
2022-08-07T12:24:52.421Z,3915.00
2022-08-07T12:26:03.448Z,3892.50
2022-08-07T12:26:51.004Z,3898.13
2022-08-07T12:28:09.131Z,3903.75
2022-08-07T12:28:52.997Z,3903.75
2022-08-07T12:30:12.012Z,3892.50
2022-08-07T12:30:53.336Z,3881.25
2022-08-07T12:32:02.436Z,3915.00
2022-08-07T12:32:51.001Z,3870.00
2022-08-07T12:34:01.238Z,3870.00
2022-08-07T12:34:55.643Z,3881.25
2022-08-07T12:36:11.994Z,3881.25
2022-08-07T12:36:50.987Z,3875.63
2022-08-07T12:38:08.942Z,3892.50
2022-08-07T12:38:57.438Z,3898.13
2022-08-07T12:39:51.748Z,3898.13
2022-08-07T12:40:51.156Z,3898.13
2022-08-07T12:42:12.997Z,3898.13
2022-08-07T12:42:54.797Z,3898.13
2022-08-07T12:44:04.234Z,3881.25